createdAt,value
2023-01-24T00:01:29.939Z,95.35
2023-01-24T00:03:57.759Z,95.53
2023-01-24T00:06:25.601Z,96.23
2023-01-24T00:08:54.704Z,96.13
2023-01-24T00:11:22.470Z,95.98
2023-01-24T00:13:50.271Z,95.62
2023-01-24T00:16:20.608Z,94.90
2023-01-24T00:18:50.966Z,95.45
2023-01-24T00:21:20.413Z,96.24
2023-01-24T00:23:50.246Z,95.36
2023-01-24T00:26:19.423Z,95.57
2023-01-24T00:28:48.558Z,95.89
2023-01-24T00:31:16.937Z,95.97
2023-01-24T00:33:44.903Z,95.14
2023-01-24T00:36:14.535Z,94.79
2023-01-24T00:38:42.431Z,95.30
2023-01-24T00:41:10.289Z,95.56
2023-01-24T00:43:38.319Z,95.00
2023-01-24T00:46:08.662Z,95.59
2023-01-24T00:48:36.710Z,95.24
2023-01-24T00:51:05.615Z,95.55
2023-01-24T00:53:35.051Z,95.02
2023-01-24T00:56:02.906Z,95.51
2023-01-24T00:58:30.767Z,95.23
2023-01-24T01:01:01.333Z,95.19
2023-01-24T01:03:29.436Z,95.47
2023-01-24T01:06:01.870Z,95.96
2023-01-24T01:08:29.740Z,96.20
2023-01-24T01:10:59.195Z,96.32
2023-01-24T01:13:27.291Z,95.81
2023-01-24T01:16:02.264Z,96.48
2023-01-24T01:18:30.399Z,95.57
2023-01-24T01:20:58.212Z,94.15
2023-01-24T01:23:26.091Z,95.04
2023-01-24T01:25:53.893Z,95.67
2023-01-24T01:28:23.091Z,95.73
2023-01-24T01:30:53.965Z,96.11
2023-01-24T01:33:21.821Z,95.72
2023-01-24T01:35:49.868Z,95.64
2023-01-24T01:38:18.249Z,95.59
2023-01-24T01:40:46.215Z,92.51
2023-01-24T01:43:16.029Z,93.74
2023-01-24T01:45:47.889Z,95.03
2023-01-24T01:48:25.083Z,94.73
2023-01-24T01:51:00.132Z,95.60
2023-01-24T01:53:32.110Z,95.55
2023-01-24T01:56:05.773Z,95.78
2023-01-24T01:58:35.042Z,95.55
2023-01-24T02:01:04.312Z,95.36
2023-01-24T02:03:41.410Z,95.09
2023-01-24T02:06:17.819Z,94.90
2023-01-24T02:08:46.985Z,95.16
2023-01-24T02:11:33.743Z,95.19
2023-01-24T02:14:19.838Z,95.32
2023-01-24T02:16:48.998Z,96.26
2023-01-24T02:19:37.115Z,96.20
2023-01-24T02:22:14.335Z,95.14
2023-01-24T02:24:47.762Z,95.63
2023-01-24T02:27:16.975Z,95.52
2023-01-24T02:29:45.012Z,94.76
2023-01-24T02:32:13.966Z,94.12
2023-01-24T02:34:41.757Z,95.24
2023-01-24T02:37:14.596Z,95.24
2023-01-24T02:39:47.661Z,95.16
2023-01-24T02:42:21.925Z,95.43
2023-01-24T02:45:00.194Z,95.17
2023-01-24T02:47:34.419Z,95.54
2023-01-24T02:50:02.346Z,94.89
2023-01-24T02:52:48.073Z,95.21
2023-01-24T02:55:16.579Z,94.91
2023-01-24T02:58:02.368Z,94.71
2023-01-24T03:00:30.256Z,94.86
2023-01-24T03:03:00.087Z,95.05
2023-01-24T03:05:40.550Z,95.45
2023-01-24T03:08:15.014Z,94.99
2023-01-24T03:10:42.862Z,95.43
2023-01-24T03:13:29.523Z,95.46
2023-01-24T03:16:15.072Z,94.50
2023-01-24T03:19:00.843Z,95.33
2023-01-24T03:21:46.117Z,95.24
2023-01-24T03:24:31.982Z,94.92
2023-01-24T03:27:17.099Z,95.28
2023-01-24T03:30:03.399Z,95.90
2023-01-24T03:32:49.153Z,95.82
2023-01-24T03:35:18.143Z,95.34
2023-01-24T03:38:03.552Z,93.40
2023-01-24T03:40:33.322Z,94.98
2023-01-24T03:43:01.274Z,94.41
2023-01-24T03:45:36.948Z,94.66
2023-01-24T03:48:13.720Z,95.08
2023-01-24T03:51:00.902Z,95.03
2023-01-24T03:53:33.220Z,94.62
2023-01-24T03:56:02.724Z,94.60
2023-01-24T03:58:36.842Z,95.03
2023-01-24T04:01:09.531Z,95.40
2023-01-24T04:03:57.658Z,95.87
2023-01-24T04:06:25.607Z,95.97
2023-01-24T04:08:54.433Z,96.06
2023-01-24T04:11:24.304Z,95.69
2023-01-24T04:13:56.683Z,96.54
2023-01-24T04:16:26.333Z,94.31
2023-01-24T04:19:15.106Z,94.72
2023-01-24T04:21:43.098Z,95.54
2023-01-24T04:24:12.677Z,95.89
2023-01-24T04:26:43.757Z,95.84
2023-01-24T04:29:16.973Z,95.69
2023-01-24T04:31:48.653Z,96.53
2023-01-24T04:34:26.461Z,96.65
2023-01-24T04:36:54.336Z,96.72
2023-01-24T04:39:22.215Z,96.73
2023-01-24T04:42:03.226Z,96.74
2023-01-24T04:44:31.364Z,96.35
2023-01-24T04:47:01.348Z,95.80
2023-01-24T04:49:29.313Z,96.01
2023-01-24T04:51:57.274Z,95.86
2023-01-24T04:54:31.673Z,95.45
2023-01-24T04:56:59.632Z,96.36
2023-01-24T04:59:27.442Z,96.48
2023-01-24T05:01:55.307Z,96.63
2023-01-24T05:04:44.915Z,95.37
2023-01-24T05:07:13.605Z,96.31
2023-01-24T05:09:44.065Z,96.31
2023-01-24T05:12:13.290Z,96.44
2023-01-24T05:14:41.792Z,95.70
2023-01-24T05:17:11.024Z,95.85
2023-01-24T05:19:38.887Z,96.17
2023-01-24T05:22:09.363Z,95.83
2023-01-24T05:24:42.332Z,96.00
2023-01-24T05:27:10.306Z,95.91
2023-01-24T05:29:42.080Z,95.90
2023-01-24T05:32:09.941Z,96.49
2023-01-24T05:34:38.264Z,96.57
2023-01-24T05:37:09.839Z,96.65
2023-01-24T05:39:40.780Z,96.18
2023-01-24T05:42:09.057Z,96.74
2023-01-24T05:44:43.867Z,95.97
2023-01-24T05:47:11.681Z,96.56
2023-01-24T05:49:41.862Z,96.03
2023-01-24T05:52:12.680Z,96.42
2023-01-24T05:54:49.208Z,95.86
2023-01-24T05:57:27.660Z,96.64
2023-01-24T06:00:11.844Z,95.65
2023-01-24T06:03:04.208Z,96.37
2023-01-24T06:05:32.189Z,95.79
2023-01-24T06:08:01.376Z,96.26
2023-01-24T06:10:30.001Z,96.68
2023-01-24T06:13:05.358Z,96.28
2023-01-24T06:15:33.373Z,96.67
2023-01-24T06:18:02.138Z,96.60
2023-01-24T06:20:30.594Z,96.16
2023-01-24T06:23:05.154Z,96.83
2023-01-24T06:25:36.113Z,96.35
2023-01-24T06:28:04.499Z,96.50
2023-01-24T06:30:32.427Z,96.17
2023-01-24T06:33:19.569Z,95.37
2023-01-24T06:36:09.184Z,95.87
2023-01-24T06:38:39.095Z,96.00
2023-01-24T06:41:16.324Z,96.11
2023-01-24T06:43:45.538Z,96.12
2023-01-24T06:46:14.654Z,97.05
2023-01-24T06:48:44.680Z,96.46
2023-01-24T06:51:14.501Z,97.04
2023-01-24T06:53:43.725Z,97.23
2023-01-24T06:56:11.589Z,97.73
2023-01-24T06:58:39.478Z,97.05
2023-01-24T07:01:07.660Z,97.39
2023-01-24T07:03:35.902Z,97.66
2023-01-24T07:06:03.801Z,96.76
2023-01-24T07:08:31.566Z,96.61
2023-01-24T07:11:00.807Z,97.20
2023-01-24T07:13:28.636Z,97.62
2023-01-24T07:15:56.448Z,97.34
2023-01-24T07:18:24.797Z,97.07
2023-01-24T07:20:53.149Z,96.86
2023-01-24T07:23:22.690Z,95.46
2023-01-24T07:25:51.142Z,96.02
2023-01-24T07:28:20.547Z,93.90
2023-01-24T07:30:49.003Z,95.76
2023-01-24T07:33:16.960Z,94.21
2023-01-24T07:35:45.564Z,95.54
2023-01-24T07:38:13.914Z,96.20
2023-01-24T07:40:42.828Z,96.38
2023-01-24T07:43:10.653Z,96.33
2023-01-24T07:45:40.105Z,96.62
2023-01-24T07:48:09.199Z,96.34
2023-01-24T07:50:37.104Z,96.01
2023-01-24T07:53:05.258Z,96.19
2023-01-24T07:55:33.131Z,95.81
2023-01-24T07:58:02.549Z,95.83
2023-01-24T08:00:30.970Z,95.91
2023-01-24T08:03:00.097Z,96.22
2023-01-24T08:05:28.032Z,96.56
2023-01-24T08:07:56.830Z,96.30
2023-01-24T08:10:24.998Z,96.44
2023-01-24T08:12:53.000Z,96.32
2023-01-24T08:15:20.787Z,96.11
2023-01-24T08:17:48.633Z,96.10
2023-01-24T08:20:18.291Z,96.71
2023-01-24T08:22:57.325Z,96.97
2023-01-24T08:25:26.244Z,96.43
2023-01-24T08:27:55.064Z,96.66
2023-01-24T08:30:24.364Z,96.58
2023-01-24T08:33:01.052Z,96.18
2023-01-24T08:35:30.709Z,96.39
2023-01-24T08:37:58.735Z,96.77
2023-01-24T08:40:28.499Z,97.03
2023-01-24T08:43:01.398Z,96.91
2023-01-24T08:45:29.649Z,96.69
2023-01-24T08:47:57.646Z,96.80
2023-01-24T08:50:25.518Z,96.83
2023-01-24T08:52:57.770Z,97.13
2023-01-24T08:55:26.421Z,97.23
2023-01-24T08:57:54.255Z,96.63
2023-01-24T09:00:22.492Z,96.84
2023-01-24T09:02:52.322Z,96.70
2023-01-24T09:05:20.347Z,96.66
2023-01-24T09:07:48.658Z,96.34
2023-01-24T09:10:18.220Z,96.92
2023-01-24T09:12:46.101Z,97.06
2023-01-24T09:15:13.959Z,96.89
2023-01-24T09:17:41.750Z,97.11
2023-01-24T09:20:11.414Z,96.70
2023-01-24T09:22:39.254Z,96.81
2023-01-24T09:25:09.238Z,96.88
2023-01-24T09:27:39.174Z,97.24
2023-01-24T09:30:07.993Z,97.22
2023-01-24T09:32:36.764Z,97.18
2023-01-24T09:35:04.984Z,97.09
2023-01-24T09:37:32.778Z,96.99
2023-01-24T09:40:00.815Z,97.01
2023-01-24T09:42:40.023Z,97.11
2023-01-24T09:45:19.523Z,97.01
2023-01-24T09:47:52.220Z,97.24
2023-01-24T09:50:23.596Z,96.79
2023-01-24T09:52:55.262Z,97.32
2023-01-24T09:55:27.646Z,97.54
2023-01-24T09:57:58.714Z,97.30
2023-01-24T10:00:30.251Z,96.91
2023-01-24T10:03:00.059Z,97.55
2023-01-24T10:05:34.629Z,97.66
2023-01-24T10:08:12.861Z,97.57
2023-01-24T10:10:47.884Z,96.21
2023-01-24T10:13:45.428Z,96.77
2023-01-24T10:16:34.854Z,96.43
2023-01-24T10:19:13.717Z,96.38
2023-01-24T10:22:15.779Z,96.29
2023-01-24T10:24:53.299Z,97.34
2023-01-24T10:27:38.586Z,97.24
2023-01-24T10:30:25.545Z,96.94
2023-01-24T10:33:00.345Z,96.90
2023-01-24T10:35:34.641Z,96.67
2023-01-24T10:38:07.828Z,95.84
2023-01-24T10:40:35.627Z,96.53
2023-01-24T10:43:07.154Z,96.23
2023-01-24T10:45:49.620Z,96.05
2023-01-24T10:48:35.401Z,96.67
2023-01-24T10:51:12.921Z,96.57
2023-01-24T10:53:40.731Z,96.56
2023-01-24T10:56:09.275Z,96.40
2023-01-24T10:58:39.751Z,95.84
2023-01-24T11:01:09.095Z,96.01
2023-01-24T11:03:42.000Z,96.34
2023-01-24T11:06:26.859Z,96.15
2023-01-24T11:08:57.119Z,96.60
2023-01-24T11:11:27.175Z,95.91
2023-01-24T11:13:57.698Z,96.04
2023-01-24T11:16:30.347Z,95.99
2023-01-24T11:19:01.657Z,95.90
2023-01-24T11:21:33.377Z,96.00
2023-01-24T11:24:09.233Z,95.01
2023-01-24T11:26:39.752Z,94.99
2023-01-24T11:29:17.774Z,95.41
2023-01-24T11:31:47.321Z,95.94
2023-01-24T11:34:30.213Z,95.62
2023-01-24T11:37:13.091Z,95.33
2023-01-24T11:39:49.457Z,95.08
2023-01-24T11:42:25.598Z,95.84
2023-01-24T11:45:06.027Z,94.80
2023-01-24T11:47:38.624Z,95.26
2023-01-24T11:50:34.334Z,94.97
2023-01-24T11:53:15.870Z,95.41
2023-01-24T11:55:53.549Z,95.19
2023-01-24T11:58:39.937Z,96.28
2023-01-24T12:01:16.801Z,95.41
2023-01-24T12:04:15.777Z,96.46
2023-01-24T12:06:52.280Z,95.69
2023-01-24T12:09:23.393Z,94.70
2023-01-24T12:12:04.839Z,94.82
2023-01-24T12:15:06.909Z,95.18
2023-01-24T12:17:51.016Z,95.77
2023-01-24T12:20:32.691Z,95.42
2023-01-24T12:23:04.977Z,93.80
2023-01-24T12:25:36.365Z,95.50
2023-01-24T12:28:08.108Z,95.10
2023-01-24T12:30:41.764Z,95.26
2023-01-24T12:33:18.062Z,95.24
2023-01-24T12:35:49.605Z,95.56
2023-01-24T12:38:28.598Z,95.96
2023-01-24T12:41:08.167Z,95.82
2023-01-24T12:43:50.637Z,95.51
2023-01-24T12:46:27.355Z,95.76
2023-01-24T12:49:14.176Z,96.15
2023-01-24T12:51:48.705Z,95.11
2023-01-24T12:54:24.627Z,95.25
2023-01-24T12:56:59.288Z,95.59
2023-01-24T12:59:29.271Z,95.38
2023-01-24T13:02:19.922Z,95.57
2023-01-24T13:04:59.316Z,96.01
2023-01-24T13:07:41.122Z,95.69
2023-01-24T13:10:19.389Z,95.99
2023-01-24T13:12:48.728Z,94.38
2023-01-24T13:15:21.214Z,95.37
2023-01-24T13:18:09.756Z,95.11
2023-01-24T13:20:53.570Z,95.61
2023-01-24T13:23:49.136Z,95.47
2023-01-24T13:26:40.922Z,94.89
2023-01-24T13:29:21.908Z,95.91
2023-01-24T13:31:59.778Z,95.73
2023-01-24T13:34:33.069Z,95.34
2023-01-24T13:37:02.203Z,95.54
2023-01-24T13:39:35.346Z,95.49
2023-01-24T13:42:08.101Z,95.42
2023-01-24T13:44:36.957Z,96.03
2023-01-24T13:47:20.654Z,95.61
2023-01-24T13:50:12.057Z,95.08
2023-01-24T13:52:42.207Z,95.12
2023-01-24T13:55:59.078Z,95.05
2023-01-24T13:58:29.868Z,94.88
2023-01-24T14:01:01.053Z,95.18
2023-01-24T14:03:33.501Z,95.22
2023-01-24T14:06:14.418Z,95.60
2023-01-24T14:09:02.847Z,95.07
2023-01-24T14:11:39.246Z,95.04
2023-01-24T14:14:59.543Z,95.72
2023-01-24T14:17:49.401Z,94.83
2023-01-24T14:20:31.534Z,94.97
2023-01-24T14:23:03.475Z,94.21
2023-01-24T14:25:44.465Z,95.35
2023-01-24T14:28:20.748Z,95.21
2023-01-24T14:30:55.154Z,94.73
2023-01-24T14:33:39.622Z,94.98
2023-01-24T14:36:15.263Z,94.88
2023-01-24T14:38:43.069Z,94.72
2023-01-24T14:41:21.399Z,94.25
2023-01-24T14:43:49.712Z,95.01
2023-01-24T14:46:26.245Z,95.34
2023-01-24T14:48:54.178Z,95.05
2023-01-24T14:51:25.926Z,95.48
2023-01-24T14:53:55.840Z,95.42
2023-01-24T14:56:23.789Z,95.70
2023-01-24T14:58:53.929Z,95.04
2023-01-24T15:01:28.601Z,95.40
2023-01-24T15:03:57.696Z,95.47
2023-01-24T15:06:28.081Z,95.38
2023-01-24T15:08:57.156Z,95.64
2023-01-24T15:11:30.362Z,95.79
2023-01-24T15:14:00.896Z,95.42
2023-01-24T15:16:36.756Z,95.54
2023-01-24T15:19:07.746Z,94.95
2023-01-24T15:21:40.400Z,95.89
2023-01-24T15:24:21.166Z,95.24
2023-01-24T15:26:48.969Z,96.05
2023-01-24T15:29:39.625Z,95.14
2023-01-24T15:32:43.086Z,95.61
2023-01-24T15:35:32.918Z,95.14
2023-01-24T15:38:13.226Z,95.30
2023-01-24T15:40:49.187Z,94.91
2023-01-24T15:43:38.933Z,95.05
2023-01-24T15:46:25.322Z,95.75
2023-01-24T15:49:03.121Z,95.55
2023-01-24T15:51:36.497Z,96.14
2023-01-24T15:54:11.560Z,95.63
2023-01-24T15:56:51.813Z,96.11
2023-01-24T15:59:23.020Z,96.02
2023-01-24T16:01:51.166Z,95.21
2023-01-24T16:04:22.238Z,95.94
2023-01-24T16:06:50.377Z,95.65
2023-01-24T16:09:18.420Z,95.81
2023-01-24T16:11:48.589Z,96.59
2023-01-24T16:14:21.078Z,95.75
2023-01-24T16:16:49.701Z,96.38
2023-01-24T16:19:20.780Z,95.75
2023-01-24T16:21:48.658Z,96.32
2023-01-24T16:24:16.676Z,95.96
2023-01-24T16:26:48.509Z,96.36
2023-01-24T16:29:19.356Z,96.53
2023-01-24T16:31:48.068Z,96.59
2023-01-24T16:34:16.005Z,96.76
2023-01-24T16:36:45.167Z,96.54
2023-01-24T16:39:18.231Z,93.97
2023-01-24T16:41:46.665Z,94.76
2023-01-24T16:44:15.101Z,93.22
2023-01-24T16:46:49.151Z,94.92
2023-01-24T16:49:16.987Z,95.58
2023-01-24T16:51:47.242Z,95.22
2023-01-24T16:54:16.243Z,96.04
2023-01-24T16:56:45.958Z,95.98
2023-01-24T16:59:13.921Z,95.63
2023-01-24T17:01:42.648Z,96.19
2023-01-24T17:04:13.977Z,96.60
2023-01-24T17:06:41.777Z,95.88
2023-01-24T17:09:11.313Z,96.14
2023-01-24T17:11:39.107Z,96.61
2023-01-24T17:14:06.922Z,96.26
2023-01-24T17:16:34.703Z,96.37
2023-01-24T17:19:03.181Z,96.61
2023-01-24T17:21:30.959Z,95.62
2023-01-24T17:23:58.833Z,94.71
2023-01-24T17:26:28.027Z,95.44
2023-01-24T17:28:55.813Z,95.67
2023-01-24T17:31:23.948Z,95.87
2023-01-24T17:33:51.988Z,96.13
2023-01-24T17:36:19.808Z,96.37
2023-01-24T17:38:48.083Z,95.88
2023-01-24T17:41:17.398Z,96.05
2023-01-24T17:43:52.911Z,95.77
2023-01-24T17:46:21.634Z,95.94
2023-01-24T17:48:49.581Z,95.99
2023-01-24T17:51:19.304Z,96.35
2023-01-24T17:53:48.157Z,95.81
2023-01-24T17:56:17.755Z,96.69
2023-01-24T17:58:46.969Z,96.82
2023-01-24T18:01:15.822Z,96.59
2023-01-24T18:03:44.460Z,96.71
2023-01-24T18:06:12.056Z,95.51
2023-01-24T18:08:40.352Z,95.41
2023-01-24T18:11:09.951Z,96.04
2023-01-24T18:13:38.600Z,96.58
2023-01-24T18:16:09.668Z,96.01
2023-01-24T18:18:38.753Z,96.53
2023-01-24T18:21:10.712Z,96.74
2023-01-24T18:23:39.103Z,96.68
2023-01-24T18:26:08.148Z,96.71
2023-01-24T18:28:37.285Z,97.01
2023-01-24T18:31:09.699Z,96.42
2023-01-24T18:33:37.860Z,96.20
2023-01-24T18:36:09.960Z,96.24
2023-01-24T18:38:38.121Z,96.27
2023-01-24T18:41:06.224Z,96.44
2023-01-24T18:43:34.212Z,96.42
2023-01-24T18:46:06.621Z,96.01
2023-01-24T18:48:36.713Z,95.68
2023-01-24T18:51:08.719Z,96.20
2023-01-24T18:53:36.663Z,95.92
2023-01-24T18:56:06.839Z,96.22
2023-01-24T18:58:36.913Z,96.18
2023-01-24T19:01:11.928Z,95.84
2023-01-24T19:03:41.487Z,95.67
2023-01-24T19:06:10.518Z,94.74
2023-01-24T19:08:52.177Z,95.33
2023-01-24T19:11:28.127Z,95.13
2023-01-24T19:13:56.502Z,95.51
2023-01-24T19:16:24.483Z,95.78
2023-01-24T19:18:53.787Z,96.21
2023-01-24T19:21:21.690Z,96.58
2023-01-24T19:23:50.949Z,96.47
2023-01-24T19:26:19.788Z,96.40
2023-01-24T19:28:47.846Z,96.61
2023-01-24T19:31:15.835Z,96.55
2023-01-24T19:33:43.687Z,96.76
2023-01-24T19:36:13.021Z,96.25
2023-01-24T19:38:40.814Z,96.67
2023-01-24T19:41:09.660Z,96.69
2023-01-24T19:43:40.911Z,96.65
2023-01-24T19:46:12.248Z,96.74
2023-01-24T19:48:40.855Z,96.71
2023-01-24T19:51:11.436Z,96.60
2023-01-24T19:53:40.708Z,96.87
2023-01-24T19:56:11.148Z,96.60
2023-01-24T19:58:39.481Z,96.52
2023-01-24T20:01:08.879Z,97.00
2023-01-24T20:03:38.421Z,97.17
2023-01-24T20:06:08.585Z,96.41
2023-01-24T20:08:36.846Z,96.94
2023-01-24T20:11:08.534Z,96.63
2023-01-24T20:13:36.672Z,96.52
2023-01-24T20:16:05.809Z,96.48
2023-01-24T20:18:33.977Z,96.29
2023-01-24T20:21:01.829Z,96.48
2023-01-24T20:23:29.637Z,96.73
2023-01-24T20:26:02.740Z,94.46
2023-01-24T20:28:32.121Z,94.35
2023-01-24T20:31:05.238Z,95.71
2023-01-24T20:33:35.438Z,95.83
2023-01-24T20:36:04.956Z,96.30
2023-01-24T20:38:37.399Z,96.70
2023-01-24T20:41:09.383Z,96.20
2023-01-24T20:43:39.187Z,96.64
2023-01-24T20:46:09.584Z,96.15
2023-01-24T20:48:38.374Z,96.63
2023-01-24T20:51:07.989Z,96.48
2023-01-24T20:53:36.092Z,96.90
2023-01-24T20:56:05.907Z,96.79
2023-01-24T20:58:34.074Z,96.93
2023-01-24T21:01:08.112Z,96.90
2023-01-24T21:03:36.065Z,96.62
2023-01-24T21:06:05.474Z,96.85
2023-01-24T21:08:34.169Z,96.76
2023-01-24T21:11:02.639Z,96.91
2023-01-24T21:13:40.724Z,96.62
2023-01-24T21:16:12.400Z,96.15
2023-01-24T21:18:40.550Z,96.09
2023-01-24T21:21:09.098Z,96.02
2023-01-24T21:23:37.365Z,96.54
2023-01-24T21:26:07.303Z,96.76
2023-01-24T21:28:36.033Z,97.06
2023-01-24T21:31:06.303Z,96.52
2023-01-24T21:33:35.780Z,96.92
2023-01-24T21:36:05.374Z,96.69
2023-01-24T21:38:34.236Z,97.05
2023-01-24T21:41:20.496Z,97.19
2023-01-24T21:43:48.632Z,97.02
2023-01-24T21:46:16.944Z,96.66
2023-01-24T21:49:03.911Z,96.72
2023-01-24T21:51:34.562Z,96.30
2023-01-24T21:54:06.805Z,96.88
2023-01-24T21:56:54.453Z,96.65
2023-01-24T21:59:23.953Z,95.08
2023-01-24T22:01:54.463Z,95.77
2023-01-24T22:04:24.904Z,95.85
2023-01-24T22:06:53.048Z,96.15
2023-01-24T22:09:21.030Z,96.43
2023-01-24T22:11:49.667Z,96.82
2023-01-24T22:14:20.082Z,96.57
2023-01-24T22:16:49.730Z,96.88
2023-01-24T22:19:19.448Z,96.68
2023-01-24T22:22:22.263Z,96.71
2023-01-24T22:25:01.370Z,96.72
2023-01-24T22:27:29.697Z,96.42
2023-01-24T22:29:58.012Z,95.79
2023-01-24T22:32:26.430Z,96.13
2023-01-24T22:34:56.367Z,95.16
2023-01-24T22:37:29.641Z,95.81
2023-01-24T22:39:58.017Z,96.17
2023-01-24T22:42:26.048Z,95.28
2023-01-24T22:44:53.974Z,95.98
2023-01-24T22:47:21.819Z,96.39
2023-01-24T22:49:49.974Z,96.60
2023-01-24T22:52:17.840Z,96.62
2023-01-24T22:54:46.966Z,96.54
2023-01-24T22:57:14.752Z,96.77
2023-01-24T22:59:42.544Z,96.74
2023-01-24T23:02:10.365Z,96.41
2023-01-24T23:04:39.807Z,96.39
2023-01-24T23:07:07.794Z,96.68
2023-01-24T23:09:35.572Z,96.60
2023-01-24T23:12:25.115Z,96.80
2023-01-24T23:15:10.267Z,96.55
2023-01-24T23:17:40.990Z,96.62
2023-01-24T23:20:27.697Z,96.81
2023-01-24T23:22:55.485Z,96.59
2023-01-24T23:25:25.717Z,96.04
2023-01-24T23:27:55.565Z,96.22
2023-01-24T23:30:38.929Z,96.36
2023-01-24T23:33:23.532Z,96.25
2023-01-24T23:35:51.370Z,95.89
2023-01-24T23:38:19.114Z,96.09
2023-01-24T23:40:46.891Z,96.34
2023-01-24T23:43:16.027Z,96.54
2023-01-24T23:45:44.217Z,96.53
2023-01-24T23:48:12.776Z,96.66
2023-01-24T23:50:40.629Z,96.49
2023-01-24T23:53:08.579Z,96.73
2023-01-24T23:55:36.411Z,96.65
2023-01-24T23:58:04.925Z,96.83
